createdAt,value
2022-11-03T00:01:55.887Z,98518.00
2022-11-03T00:04:30.901Z,98516.00
2022-11-03T00:07:05.939Z,98518.00
2022-11-03T00:09:40.789Z,98522.00
2022-11-03T00:12:15.841Z,98515.00
2022-11-03T00:14:50.661Z,98508.00
2022-11-03T00:17:25.504Z,98510.00
2022-11-03T00:20:00.335Z,98503.00
2022-11-03T00:22:35.193Z,98495.00
2022-11-03T00:25:10.093Z,98498.00
2022-11-03T00:27:44.993Z,98499.00
2022-11-03T00:30:19.820Z,98497.00
2022-11-03T00:32:54.639Z,98488.00
2022-11-03T00:35:29.497Z,98484.00
2022-11-03T00:38:04.347Z,98488.00
2022-11-03T00:40:39.188Z,98475.00
2022-11-03T00:43:15.081Z,98469.00
2022-11-03T00:45:50.821Z,98470.00
2022-11-03T00:48:35.002Z,98465.00
2022-11-03T00:51:17.142Z,98470.00
2022-11-03T00:53:58.128Z,98464.00
2022-11-03T00:56:38.752Z,98456.00
2022-11-03T00:59:13.646Z,98452.00
2022-11-03T01:01:48.600Z,98457.00
2022-11-03T01:04:42.438Z,98461.00
2022-11-03T01:07:21.209Z,98458.00
2022-11-03T01:09:56.038Z,98452.00
2022-11-03T01:12:30.869Z,98453.00
2022-11-03T01:15:06.310Z,98450.00
2022-11-03T01:17:41.485Z,98439.00
2022-11-03T01:20:16.318Z,98444.00
2022-11-03T01:22:51.162Z,98440.00
2022-11-03T01:25:26.423Z,98437.00
2022-11-03T01:30:42.500Z,98431.00
2022-11-03T01:33:17.380Z,98428.00
2022-11-03T01:35:53.856Z,98419.00
2022-11-03T01:38:33.297Z,98417.00
2022-11-03T01:41:16.010Z,98416.00
2022-11-03T01:44:11.922Z,98411.00
2022-11-03T01:46:55.032Z,98401.00
2022-11-03T01:49:48.832Z,98412.00
2022-11-03T01:52:37.597Z,98403.00
2022-11-03T01:55:36.277Z,98399.00
2022-11-03T01:58:19.172Z,98391.00
2022-11-03T02:00:56.542Z,98391.00
2022-11-03T02:03:42.621Z,98381.00
2022-11-03T02:06:23.942Z,98383.00
2022-11-03T02:09:07.956Z,98382.00
2022-11-03T02:12:01.291Z,98383.00
2022-11-03T02:14:45.571Z,98391.00
2022-11-03T02:17:21.840Z,98384.00
2022-11-03T02:20:20.776Z,98383.00
2022-11-03T02:23:08.085Z,98369.00
2022-11-03T02:25:49.419Z,98372.00
2022-11-03T02:28:33.971Z,98369.00
2022-11-03T02:31:08.830Z,98359.00
2022-11-03T02:33:53.345Z,98362.00
2022-11-03T02:36:41.613Z,98358.00
2022-11-03T02:39:31.233Z,98358.00
2022-11-03T02:42:09.122Z,98349.00
2022-11-03T02:44:45.789Z,98349.00
2022-11-03T02:47:22.882Z,98348.00
2022-11-03T02:49:58.154Z,98341.00
2022-11-03T02:52:46.686Z,98334.00
2022-11-03T02:55:48.963Z,98335.00
2022-11-03T02:59:22.404Z,98325.00
2022-11-03T03:02:16.258Z,98323.00
2022-11-03T03:04:57.345Z,98315.00
2022-11-03T03:07:37.352Z,98315.00
2022-11-03T03:10:20.353Z,98300.00
2022-11-03T03:12:58.431Z,98296.00
2022-11-03T03:15:40.456Z,98293.00
2022-11-03T03:18:29.535Z,98289.00
2022-11-03T03:21:16.750Z,98289.00
2022-11-03T03:24:19.968Z,98283.00
2022-11-03T03:26:59.962Z,98278.00
2022-11-03T03:29:48.683Z,98275.00
2022-11-03T03:32:27.081Z,98268.00
2022-11-03T03:35:05.159Z,98264.00
2022-11-03T03:37:46.213Z,98263.00
2022-11-03T03:40:28.522Z,98268.00
2022-11-03T03:43:07.075Z,98265.00
2022-11-03T03:45:45.184Z,98260.00
2022-11-03T03:48:20.305Z,98264.00
2022-11-03T03:50:55.681Z,98259.00
2022-11-03T03:53:31.036Z,98244.00
2022-11-03T03:56:06.466Z,98247.00
2022-11-03T03:58:41.338Z,98244.00
2022-11-03T04:01:16.346Z,98246.00
2022-11-03T04:03:51.351Z,98240.00
2022-11-03T04:06:26.300Z,98227.00
2022-11-03T04:09:01.172Z,98225.00
2022-11-03T04:11:54.708Z,98221.00
2022-11-03T04:14:48.157Z,98215.00
2022-11-03T04:17:41.724Z,98205.00
2022-11-03T04:20:35.038Z,98199.00
2022-11-03T04:23:09.924Z,98204.00
2022-11-03T04:25:54.727Z,98197.00
2022-11-03T04:28:29.757Z,98192.00
2022-11-03T04:31:11.440Z,98197.00
2022-11-03T04:33:47.252Z,98190.00
2022-11-03T04:36:24.629Z,98186.00
2022-11-03T04:38:59.532Z,98183.00
2022-11-03T04:41:34.403Z,98177.00
2022-11-03T04:44:16.116Z,98178.00
2022-11-03T04:46:53.633Z,98184.00
2022-11-03T04:49:28.709Z,98176.00
2022-11-03T04:52:03.987Z,98167.00
2022-11-03T04:54:38.822Z,98161.00
2022-11-03T04:57:16.263Z,98165.00
2022-11-03T04:59:51.278Z,98163.00
2022-11-03T05:02:26.408Z,98163.00
2022-11-03T05:05:01.304Z,98159.00
2022-11-03T05:07:36.753Z,98156.00
2022-11-03T05:10:21.028Z,98162.00
2022-11-03T05:12:56.712Z,98148.00
2022-11-03T05:15:40.533Z,98144.00
2022-11-03T05:18:33.335Z,98148.00
2022-11-03T05:21:12.540Z,98145.00
2022-11-03T05:23:52.762Z,98139.00
2022-11-03T05:26:32.999Z,98132.00
2022-11-03T05:29:20.013Z,98139.00
2022-11-03T05:31:55.869Z,98135.00
2022-11-03T05:34:30.745Z,98129.00
2022-11-03T05:37:28.890Z,98123.00
2022-11-03T05:40:37.139Z,98115.00
2022-11-03T05:43:14.692Z,98109.00
2022-11-03T05:45:54.835Z,98104.00
2022-11-03T05:48:39.288Z,98097.00
2022-11-03T05:51:25.274Z,98100.00
2022-11-03T05:54:04.927Z,98098.00
2022-11-03T05:56:39.799Z,98091.00
2022-11-03T05:59:20.134Z,98099.00
2022-11-03T06:01:59.625Z,98095.00
2022-11-03T06:04:40.270Z,98094.00
2022-11-03T06:07:26.838Z,98095.00
2022-11-03T06:10:01.874Z,98092.00
2022-11-03T06:12:36.809Z,98093.00
2022-11-03T06:15:28.627Z,98088.00
2022-11-03T06:18:20.367Z,98075.00
2022-11-03T06:20:59.989Z,98075.00
2022-11-03T06:23:36.400Z,98064.00
2022-11-03T06:26:31.403Z,98067.00
2022-11-03T06:29:12.393Z,98051.00
2022-11-03T06:31:54.551Z,98050.00
2022-11-03T06:34:33.945Z,98045.00
2022-11-03T06:37:23.523Z,98045.00
2022-11-03T06:40:03.339Z,98051.00
2022-11-03T06:42:40.026Z,98057.00
2022-11-03T06:45:23.606Z,98054.00
2022-11-03T06:47:58.717Z,98058.00
2022-11-03T06:50:34.161Z,98056.00
2022-11-03T06:53:10.113Z,98058.00
2022-11-03T06:55:46.984Z,98067.00
2022-11-03T06:58:31.348Z,98060.00
2022-11-03T07:01:30.686Z,98061.00
2022-11-03T07:04:29.786Z,98062.00
2022-11-03T07:07:05.404Z,98054.00
2022-11-03T07:09:40.424Z,98044.00
2022-11-03T07:12:18.460Z,98052.00
2022-11-03T07:14:53.468Z,98053.00
2022-11-03T07:17:28.473Z,98047.00
2022-11-03T07:20:04.148Z,98035.00
2022-11-03T07:22:39.203Z,98030.00
2022-11-03T07:25:20.489Z,98027.00
2022-11-03T07:27:57.378Z,98015.00
2022-11-03T07:30:35.447Z,98004.00
2022-11-03T07:33:24.586Z,98013.00
2022-11-03T07:36:16.863Z,98018.00
2022-11-03T07:38:55.103Z,98012.00
2022-11-03T07:41:34.555Z,98002.00
2022-11-03T07:44:17.225Z,98002.00
2022-11-03T07:46:52.228Z,98002.00
2022-11-03T07:49:30.149Z,98001.00
2022-11-03T07:52:14.826Z,97995.00
2022-11-03T07:54:52.262Z,98004.00
2022-11-03T07:57:31.248Z,97999.00
2022-11-03T08:00:13.232Z,97994.00
2022-11-03T08:02:58.398Z,97991.00
2022-11-03T08:05:33.345Z,97982.00
2022-11-03T08:08:08.695Z,97980.00
2022-11-03T08:10:43.776Z,97981.00
2022-11-03T08:13:18.669Z,97975.00
2022-11-03T08:15:53.683Z,97964.00
2022-11-03T08:18:28.716Z,97961.00
2022-11-03T08:21:04.170Z,97950.00
2022-11-03T08:23:43.246Z,97940.00
2022-11-03T08:26:21.931Z,97945.00
2022-11-03T08:28:57.190Z,97926.00
2022-11-03T08:31:32.217Z,97922.00
2022-11-03T08:34:07.175Z,97933.00
2022-11-03T08:36:42.185Z,97933.00
2022-11-03T08:39:17.388Z,97927.00
2022-11-03T08:41:52.415Z,97922.00
2022-11-03T08:44:27.415Z,97919.00
2022-11-03T08:47:02.367Z,97913.00
2022-11-03T08:49:37.247Z,97916.00
2022-11-03T08:52:12.851Z,97909.00
2022-11-03T08:54:47.980Z,97907.00
2022-11-03T08:57:22.961Z,97900.00
2022-11-03T08:59:58.092Z,97891.00
2022-11-03T09:02:33.197Z,97896.00
2022-11-03T09:05:08.615Z,97893.00
2022-11-03T09:10:41.356Z,97894.00
2022-11-03T09:13:17.529Z,97894.00
2022-11-03T09:15:52.806Z,97889.00
2022-11-03T09:18:27.774Z,97891.00
2022-11-03T09:21:02.698Z,97876.00
2022-11-03T09:23:38.673Z,97875.00
2022-11-03T09:26:13.625Z,97876.00
2022-11-03T09:28:49.604Z,97864.00
2022-11-03T09:31:28.358Z,97866.00
2022-11-03T09:34:03.315Z,97868.00
2022-11-03T09:36:38.259Z,97858.00
2022-11-03T09:39:13.209Z,97854.00
2022-11-03T09:41:58.494Z,97860.00
2022-11-03T09:44:35.877Z,97848.00
2022-11-03T09:47:23.212Z,97852.00
2022-11-03T09:49:58.521Z,97837.00
2022-11-03T09:52:36.585Z,97832.00
2022-11-03T09:55:27.379Z,97835.00
2022-11-03T09:58:13.256Z,97833.00
2022-11-03T10:00:48.567Z,97829.00
2022-11-03T10:03:23.658Z,97832.00
2022-11-03T10:05:58.649Z,97832.00
2022-11-03T10:08:37.651Z,97818.00
2022-11-03T10:11:13.662Z,97822.00
2022-11-03T10:13:55.086Z,97811.00
2022-11-03T10:16:30.217Z,97804.00
2022-11-03T10:19:05.201Z,97804.00
2022-11-03T10:21:42.657Z,97802.00
2022-11-03T10:24:18.493Z,97801.00
2022-11-03T10:26:55.128Z,97810.00
2022-11-03T10:29:32.426Z,97810.00
2022-11-03T10:32:30.114Z,97797.00
2022-11-03T10:35:33.971Z,97784.00
2022-11-03T10:38:43.581Z,97781.00
2022-11-03T10:41:24.821Z,97775.00
2022-11-03T10:44:02.774Z,97774.00
2022-11-03T10:46:56.357Z,97760.00
2022-11-03T10:49:43.278Z,97770.00
2022-11-03T10:52:27.963Z,97765.00
2022-11-03T10:55:04.671Z,97755.00
2022-11-03T10:57:39.619Z,97749.00
2022-11-03T11:00:19.053Z,97749.00
2022-11-03T11:03:00.908Z,97740.00
2022-11-03T11:05:35.932Z,97742.00
2022-11-03T11:08:11.562Z,97738.00
2022-11-03T11:10:46.830Z,97724.00
2022-11-03T11:13:21.902Z,97736.00
2022-11-03T11:16:02.884Z,97707.00
2022-11-03T11:18:40.834Z,97692.00
2022-11-03T11:21:15.757Z,97693.00
2022-11-03T11:23:52.838Z,97694.00
2022-11-03T11:26:34.715Z,97694.00
2022-11-03T11:29:09.901Z,97686.00
2022-11-03T11:31:47.642Z,97679.00
2022-11-03T11:34:38.599Z,97683.00
2022-11-03T11:37:13.515Z,97673.00
2022-11-03T11:39:48.454Z,97683.00
2022-11-03T11:42:23.625Z,97677.00
2022-11-03T11:45:02.905Z,97672.00
2022-11-03T11:47:44.680Z,97665.00
2022-11-03T11:50:31.440Z,97657.00
2022-11-03T11:53:19.984Z,97640.00
2022-11-03T11:56:01.781Z,97631.00
2022-11-03T11:58:51.959Z,97636.00
2022-11-03T12:01:35.172Z,97633.00
2022-11-03T12:04:23.336Z,97631.00
2022-11-03T12:06:58.367Z,97622.00
2022-11-03T12:09:33.574Z,97622.00
2022-11-03T12:12:09.065Z,97617.00
2022-11-03T12:14:44.077Z,97607.00
2022-11-03T12:17:18.985Z,97600.00
2022-11-03T12:19:54.996Z,97598.00
2022-11-03T12:22:29.998Z,97596.00
2022-11-03T12:25:08.556Z,97591.00
2022-11-03T12:27:43.857Z,97586.00
2022-11-03T12:30:19.775Z,97589.00
2022-11-03T12:32:54.765Z,97581.00
2022-11-03T12:35:29.909Z,97573.00
2022-11-03T12:38:06.035Z,97572.00
2022-11-03T12:40:40.930Z,97564.00
2022-11-03T12:43:15.987Z,97550.00
2022-11-03T12:45:50.903Z,97540.00
2022-11-03T12:48:25.851Z,97540.00
2022-11-03T12:51:00.810Z,97533.00
2022-11-03T12:53:35.686Z,97533.00
2022-11-03T12:56:12.126Z,97527.00
2022-11-03T12:58:47.319Z,97518.00
2022-11-03T13:01:22.426Z,97523.00
2022-11-03T13:03:57.698Z,97520.00
2022-11-03T13:06:33.256Z,97510.00
2022-11-03T13:09:09.245Z,97505.00
2022-11-03T13:12:03.006Z,97496.00
2022-11-03T13:14:37.923Z,97481.00
2022-11-03T13:17:12.840Z,97483.00
2022-11-03T13:19:49.374Z,97477.00
2022-11-03T13:22:29.120Z,97471.00
2022-11-03T13:25:04.596Z,97453.00
2022-11-03T13:27:39.540Z,97446.00
2022-11-03T13:30:14.510Z,97443.00
2022-11-03T13:32:49.911Z,97433.00
2022-11-03T13:35:24.998Z,97428.00
2022-11-03T13:37:59.983Z,97434.00
2022-11-03T13:40:55.614Z,97423.00
2022-11-03T13:43:29.818Z,97412.00
2022-11-03T13:46:05.224Z,97398.00
2022-11-03T13:51:35.393Z,97396.00
2022-11-03T14:00:03.735Z,97384.00
2022-11-03T14:05:43.175Z,97362.00
2022-11-03T14:08:18.161Z,97360.00
2022-11-03T14:10:53.153Z,97356.00
2022-11-03T14:13:28.117Z,97344.00
2022-11-03T14:16:03.217Z,97347.00
2022-11-03T14:18:38.274Z,97330.00
2022-11-03T14:21:13.184Z,97330.00
2022-11-03T14:23:48.121Z,97331.00
2022-11-03T14:26:40.263Z,97324.00
2022-11-03T14:29:16.961Z,97321.00
2022-11-03T14:31:51.926Z,97323.00
2022-11-03T14:34:27.202Z,97314.00
2022-11-03T14:37:02.444Z,97301.00
2022-11-03T14:39:38.202Z,97307.00
2022-11-03T14:42:17.257Z,97304.00
2022-11-03T14:47:31.344Z,97304.00
2022-11-03T14:50:07.071Z,97301.00
2022-11-03T14:52:41.929Z,97291.00
2022-11-03T14:55:16.832Z,97277.00
2022-11-03T14:57:52.749Z,97271.00
2022-11-03T15:00:27.802Z,97265.00
2022-11-03T15:03:03.261Z,97255.00
2022-11-03T15:05:46.930Z,97244.00
2022-11-03T15:08:23.679Z,97242.00
2022-11-03T15:10:58.618Z,97242.00
2022-11-03T15:13:37.835Z,97225.00
2022-11-03T15:16:18.229Z,97231.00
2022-11-03T15:18:53.343Z,97227.00
2022-11-03T15:21:28.322Z,97224.00
2022-11-03T15:26:58.544Z,97201.00
2022-11-03T15:29:33.532Z,97205.00
2022-11-03T15:32:08.473Z,97198.00
2022-11-03T15:34:43.348Z,97198.00
2022-11-03T15:37:18.457Z,97191.00
2022-11-03T15:39:57.192Z,97189.00
2022-11-03T15:42:34.542Z,97192.00
2022-11-03T15:45:13.920Z,97187.00
2022-11-03T15:47:48.948Z,97178.00
2022-11-03T15:50:24.024Z,97176.00
2022-11-03T15:52:59.083Z,97178.00
2022-11-03T15:55:34.062Z,97171.00
2022-11-03T15:58:09.212Z,97154.00
2022-11-03T16:00:44.511Z,97153.00
2022-11-03T16:03:19.533Z,97145.00
2022-11-03T16:05:54.642Z,97132.00
2022-11-03T16:08:29.662Z,97125.00
2022-11-03T16:11:04.693Z,97110.00
2022-11-03T16:13:39.725Z,97103.00
2022-11-03T16:16:14.694Z,97102.00
2022-11-03T16:18:49.672Z,97089.00
2022-11-03T16:21:25.015Z,97086.00
2022-11-03T16:23:59.967Z,97086.00
2022-11-03T16:26:34.946Z,97091.00
2022-11-03T16:29:09.909Z,97079.00
2022-11-03T16:31:48.210Z,97067.00
2022-11-03T16:34:23.143Z,97081.00
2022-11-03T16:36:58.472Z,97072.00
2022-11-03T16:39:33.994Z,97078.00
2022-11-03T16:42:09.115Z,97067.00
2022-11-03T16:44:44.108Z,97068.00
2022-11-03T16:47:19.047Z,97065.00
2022-11-03T16:49:53.981Z,97058.00
2022-11-03T16:52:28.905Z,97051.00
2022-11-03T16:55:04.833Z,97065.00
2022-11-03T16:57:39.800Z,97052.00
2022-11-03T17:00:18.700Z,97040.00
2022-11-03T17:02:53.632Z,97047.00
2022-11-03T17:05:28.737Z,97050.00
2022-11-03T17:08:03.722Z,97039.00
2022-11-03T17:10:38.666Z,97051.00
2022-11-03T17:13:13.684Z,97047.00
2022-11-03T17:15:48.874Z,97047.00
2022-11-03T17:18:23.852Z,97051.00
2022-11-03T17:20:58.825Z,97074.00
2022-11-03T17:23:33.821Z,97095.00
2022-11-03T17:26:09.357Z,97103.00
2022-11-03T17:28:44.390Z,97103.00
2022-11-03T17:31:19.379Z,97082.00
2022-11-03T17:33:54.936Z,97077.00
2022-11-03T17:36:29.987Z,97073.00
2022-11-03T17:39:05.053Z,97071.00
2022-11-03T17:41:40.014Z,97078.00
2022-11-03T17:44:17.194Z,97070.00
2022-11-03T17:46:52.082Z,97063.00
2022-11-03T17:49:27.057Z,97072.00
2022-11-03T17:52:02.317Z,97080.00
2022-11-03T17:54:37.328Z,97055.00
2022-11-03T17:57:17.466Z,97075.00
2022-11-03T17:59:58.587Z,97058.00
2022-11-03T18:02:35.558Z,97056.00
2022-11-03T18:05:31.243Z,97038.00
2022-11-03T18:08:10.374Z,97046.00
2022-11-03T18:10:51.873Z,97029.00
2022-11-03T18:13:34.168Z,97014.00
2022-11-03T18:16:14.210Z,97012.00
2022-11-03T18:18:49.151Z,97013.00
2022-11-03T18:21:30.199Z,97010.00
2022-11-03T18:24:19.951Z,97005.00
2022-11-03T18:26:55.002Z,97013.00
2022-11-03T18:29:30.059Z,97015.00
2022-11-03T18:32:05.430Z,97009.00
2022-11-03T18:34:41.907Z,97014.00
2022-11-03T18:37:16.834Z,97019.00
2022-11-03T18:39:51.808Z,97043.00
2022-11-03T18:42:26.811Z,97035.00
2022-11-03T18:45:03.109Z,97030.00
2022-11-03T18:47:38.313Z,97020.00
2022-11-03T18:50:17.194Z,97007.00
2022-11-03T18:52:52.080Z,96989.00
2022-11-03T18:55:27.025Z,96983.00
2022-11-03T18:58:03.342Z,96984.00
2022-11-03T19:00:38.303Z,96984.00
2022-11-03T19:03:16.656Z,96980.00
2022-11-03T19:05:53.214Z,96966.00
2022-11-03T19:08:33.607Z,96974.00
2022-11-03T19:11:11.436Z,96987.00
2022-11-03T19:13:48.071Z,97004.00
2022-11-03T19:16:24.593Z,96973.00
2022-11-03T19:18:59.515Z,96972.00
2022-11-03T19:21:34.459Z,96957.00
2022-11-03T19:24:09.403Z,96953.00
2022-11-03T19:26:58.177Z,96937.00
2022-11-03T19:29:40.037Z,96967.00
2022-11-03T19:32:29.892Z,96952.00
2022-11-03T19:35:19.407Z,96936.00
2022-11-03T19:38:05.914Z,96956.00
2022-11-03T19:41:02.078Z,96947.00
2022-11-03T19:43:37.000Z,96930.00
2022-11-03T19:46:18.831Z,96931.00
2022-11-03T19:48:55.097Z,96936.00
2022-11-03T19:51:30.646Z,96947.00
2022-11-03T19:54:13.364Z,96929.00
2022-11-03T19:56:48.863Z,96934.00
2022-11-03T19:59:23.789Z,96921.00
2022-11-03T20:01:58.903Z,96916.00
2022-11-03T20:04:34.064Z,96901.00
2022-11-03T20:07:11.311Z,96908.00
2022-11-03T20:09:46.619Z,96914.00
2022-11-03T20:12:21.523Z,96919.00
2022-11-03T20:14:56.693Z,96923.00
2022-11-03T20:17:31.654Z,96929.00
2022-11-03T20:20:09.038Z,96925.00
2022-11-03T20:22:55.572Z,96930.00
2022-11-03T20:25:35.003Z,96923.00
2022-11-03T20:28:28.545Z,96909.00
2022-11-03T20:31:03.962Z,96918.00
2022-11-03T20:33:39.743Z,96916.00
2022-11-03T20:36:17.656Z,96909.00
2022-11-03T20:38:59.417Z,96909.00
2022-11-03T20:41:34.954Z,96908.00
2022-11-03T20:44:12.581Z,96899.00
2022-11-03T20:46:47.556Z,96894.00
2022-11-03T20:49:22.579Z,96913.00
2022-11-03T20:51:57.666Z,96892.00
2022-11-03T20:54:33.111Z,96911.00
2022-11-03T20:57:12.503Z,96917.00
2022-11-03T20:59:47.658Z,96910.00
2022-11-03T21:02:24.071Z,96907.00
2022-11-03T21:05:00.096Z,96915.00
2022-11-03T21:07:38.477Z,96925.00
2022-11-03T21:10:20.171Z,96924.00
2022-11-03T21:12:55.704Z,96931.00
2022-11-03T21:16:18.194Z,96938.00
2022-11-03T21:19:02.648Z,96941.00
2022-11-03T21:21:37.548Z,96944.00
2022-11-03T21:24:12.731Z,96943.00
2022-11-03T21:26:47.713Z,96952.00
2022-11-03T21:29:39.121Z,96941.00
2022-11-03T21:32:18.044Z,96934.00
2022-11-03T21:34:52.888Z,96929.00
2022-11-03T21:37:27.931Z,96923.00
2022-11-03T21:40:02.823Z,96919.00
2022-11-03T21:42:56.359Z,96921.00
2022-11-03T21:45:31.269Z,96924.00
2022-11-03T21:48:25.544Z,96921.00
2022-11-03T21:51:02.099Z,96922.00
2022-11-03T21:53:36.993Z,96931.00
2022-11-03T21:56:15.582Z,96930.00
2022-11-03T21:58:50.692Z,96944.00
2022-11-03T22:01:25.687Z,96960.00
2022-11-03T22:04:00.646Z,96983.00
2022-11-03T22:06:35.578Z,97008.00
2022-11-03T22:09:10.916Z,97009.00
2022-11-03T22:11:46.726Z,97014.00
2022-11-03T22:14:21.651Z,97008.00
2022-11-03T22:16:56.592Z,97001.00
2022-11-03T22:19:50.154Z,96991.00
2022-11-03T22:22:43.675Z,97002.00
2022-11-03T22:25:37.200Z,97016.00
2022-11-03T22:28:14.775Z,97013.00
2022-11-03T22:31:08.781Z,97009.00
2022-11-03T22:34:02.245Z,97025.00
2022-11-03T22:36:37.143Z,97028.00
2022-11-03T22:39:30.677Z,97037.00
2022-11-03T22:42:28.834Z,97048.00
2022-11-03T22:45:22.524Z,97052.00
2022-11-03T22:47:57.791Z,97073.00
2022-11-03T22:50:32.993Z,97078.00
2022-11-03T22:53:43.297Z,97074.00
2022-11-03T22:56:18.932Z,97090.00
2022-11-03T22:58:54.130Z,97074.00
2022-11-03T23:01:30.230Z,97084.00
2022-11-03T23:04:08.329Z,97067.00
2022-11-03T23:06:43.366Z,97071.00
2022-11-03T23:09:18.301Z,97078.00
2022-11-03T23:11:53.260Z,97095.00
2022-11-03T23:14:48.194Z,97105.00
2022-11-03T23:17:43.518Z,97111.00
2022-11-03T23:20:37.631Z,97101.00
2022-11-03T23:23:32.528Z,97099.00
2022-11-03T23:26:08.859Z,97091.00
2022-11-03T23:28:44.299Z,97088.00
2022-11-03T23:31:19.197Z,97106.00
2022-11-03T23:33:54.263Z,97113.00
2022-11-03T23:36:29.986Z,97110.00
2022-11-03T23:39:06.304Z,97114.00
2022-11-03T23:41:42.375Z,97108.00
2022-11-03T23:44:17.856Z,97107.00
2022-11-03T23:47:11.134Z,97114.00
2022-11-03T23:49:46.036Z,97104.00
2022-11-03T23:52:20.978Z,97088.00
2022-11-03T23:54:55.900Z,97091.00
2022-11-03T23:57:49.577Z,97102.00
